createdAt,value
2016-04-16T00:00:44.758Z,99.05
2016-04-16T00:01:44.730Z,98.86
2016-04-16T00:02:44.717Z,99.15
2016-04-16T00:03:44.705Z,98.76
2016-04-16T00:04:44.692Z,99.05
2016-04-16T00:05:44.694Z,99.43
2016-04-16T00:06:44.666Z,99.34
2016-04-16T00:07:44.652Z,99.15
2016-04-16T00:08:44.640Z,99.05
2016-04-16T00:09:44.627Z,99.24
2016-04-16T00:10:44.613Z,99.34
2016-04-16T00:11:44.601Z,99.15
2016-04-16T00:12:44.587Z,98.67
2016-04-16T00:13:44.575Z,99.34
2016-04-16T00:14:44.562Z,99.43
2016-04-16T00:15:44.534Z,98.86
2016-04-16T00:16:44.521Z,99.58
2016-04-16T00:17:44.508Z,99.34
2016-04-16T00:18:44.495Z,99.63
2016-04-16T00:19:44.482Z,99.34
2016-04-16T00:20:44.469Z,99.53
2016-04-16T00:21:44.456Z,99.68
2016-04-16T00:22:44.443Z,99.68
2016-04-16T00:23:44.446Z,99.24
2016-04-16T00:24:44.418Z,99.48
2016-04-16T00:25:44.404Z,99.96
2016-04-16T00:26:44.392Z,99.87
2016-04-16T00:27:44.378Z,99.99
2016-04-16T00:28:44.366Z,99.99
2016-04-16T00:29:44.353Z,99.99
2016-04-16T00:30:44.324Z,99.99
2016-04-16T00:31:44.311Z,99.99
2016-04-16T00:32:44.297Z,99.99
2016-04-16T00:33:44.285Z,99.99
2016-04-16T00:34:44.272Z,99.99
2016-04-16T00:35:44.260Z,99.99
2016-04-16T00:36:44.247Z,99.99
2016-04-16T00:37:44.233Z,99.99
2016-04-16T00:38:44.221Z,99.99
2016-04-16T00:39:44.223Z,99.99
2016-04-16T00:40:44.210Z,99.99
2016-04-16T00:41:44.182Z,99.99
2016-04-16T00:42:44.168Z,99.99
2016-04-16T00:43:44.156Z,99.99
2016-04-16T00:44:44.142Z,99.99
2016-04-16T00:45:44.129Z,99.99
2016-04-16T00:46:44.101Z,99.99
2016-04-16T00:47:44.104Z,99.99
2016-04-16T00:48:44.076Z,99.99
2016-04-16T00:49:44.063Z,99.99
2016-04-16T00:50:44.050Z,99.99
2016-04-16T00:51:44.037Z,99.99
2016-04-16T00:52:44.023Z,99.99
2016-04-16T00:53:44.012Z,99.99
2016-04-16T00:54:43.998Z,99.99
2016-04-16T00:55:43.985Z,99.99
2016-04-16T00:56:43.973Z,99.99
2016-04-16T00:57:43.959Z,99.99
2016-04-16T00:58:43.931Z,99.99
2016-04-16T00:59:43.933Z,99.99
2016-04-16T01:00:43.920Z,99.99
2016-04-16T01:01:43.907Z,99.99
2016-04-16T01:02:43.894Z,99.99
2016-04-16T01:03:43.881Z,99.99
2016-04-16T01:04:43.869Z,99.99
2016-04-16T01:05:43.841Z,99.99
2016-04-16T01:06:43.843Z,99.99
2016-04-16T01:07:43.830Z,99.99
2016-04-16T01:08:43.816Z,99.99
2016-04-16T01:09:43.788Z,99.99
2016-04-16T01:10:43.775Z,99.99
2016-04-16T01:11:43.762Z,99.99
2016-04-16T01:12:43.749Z,99.99
2016-04-16T01:13:43.736Z,99.99
2016-04-16T01:14:43.724Z,99.99
2016-04-16T01:15:43.710Z,99.99
2016-04-16T01:16:43.698Z,99.99
2016-04-16T01:17:43.684Z,99.99
2016-04-16T01:18:43.656Z,99.99
2016-04-16T01:19:43.659Z,99.99
2016-04-16T01:20:43.645Z,99.99
2016-04-16T01:21:43.618Z,99.99
2016-04-16T01:22:43.448Z,99.99
2016-04-16T01:23:43.592Z,99.99
2016-04-16T01:24:43.578Z,99.99
2016-04-16T01:25:43.565Z,99.99
2016-04-16T01:26:43.552Z,99.99
2016-04-16T01:27:43.539Z,99.99
2016-04-16T01:28:43.511Z,99.99
2016-04-16T01:29:43.514Z,99.99
2016-04-16T01:30:43.500Z,99.99
2016-04-16T01:31:43.472Z,99.99
2016-04-16T01:32:43.475Z,99.99
2016-04-16T01:33:43.446Z,99.99
2016-04-16T01:34:43.433Z,99.99
2016-04-16T01:35:43.436Z,99.99
2016-04-16T01:36:43.407Z,99.99
2016-04-16T01:37:43.410Z,99.99
2016-04-16T01:38:43.397Z,99.99
2016-04-16T01:39:43.368Z,99.99
2016-04-16T01:40:43.355Z,99.99
2016-04-16T01:41:43.343Z,99.99
2016-04-16T01:42:43.345Z,99.99
2016-04-16T01:43:43.301Z,99.99
2016-04-16T01:44:43.304Z,99.99
2016-04-16T01:45:43.276Z,99.99
2016-04-16T01:46:43.263Z,99.99
2016-04-16T01:47:43.250Z,99.99
2016-04-16T01:48:43.237Z,99.99
2016-04-16T01:49:43.224Z,99.99
2016-04-16T01:50:43.211Z,99.99
2016-04-16T01:51:43.198Z,99.99
2016-04-16T01:52:43.184Z,99.99
2016-04-16T01:53:43.172Z,99.99
2016-04-16T01:54:43.159Z,99.99
2016-04-16T01:55:43.146Z,99.99
2016-04-16T01:56:43.118Z,99.99
2016-04-16T01:57:43.120Z,99.99
2016-04-16T01:58:43.092Z,99.99
2016-04-16T01:59:43.078Z,99.99
2016-04-16T02:00:43.066Z,99.99
2016-04-16T02:01:43.052Z,99.99
2016-04-16T02:02:43.039Z,99.99
2016-04-16T02:03:43.015Z,99.99
2016-04-16T02:04:43.002Z,99.99
2016-04-16T02:05:42.989Z,99.99
2016-04-16T02:06:42.976Z,99.99
2016-04-16T02:07:42.964Z,99.99
2016-04-16T02:08:42.950Z,99.99
2016-04-16T02:09:42.937Z,99.99
2016-04-16T02:10:42.925Z,99.99
2016-04-16T02:11:42.897Z,99.99
2016-04-16T02:12:42.884Z,99.99
2016-04-16T02:13:42.902Z,99.99
2016-04-16T02:14:42.873Z,99.99
2016-04-16T02:15:42.844Z,99.99
2016-04-16T02:16:42.831Z,99.99
2016-04-16T02:17:42.818Z,99.99
2016-04-16T02:18:42.805Z,99.99
2016-04-16T02:19:42.793Z,99.99
2016-04-16T02:20:42.780Z,99.99
2016-04-16T02:21:42.766Z,99.99
2016-04-16T02:22:42.741Z,99.99
2016-04-16T02:23:42.727Z,99.99
2016-04-16T02:24:42.715Z,99.99
2016-04-16T02:25:42.701Z,99.99
2016-04-16T02:26:42.688Z,99.99
2016-04-16T02:27:42.676Z,99.99
2016-04-16T02:28:42.662Z,99.99
2016-04-16T02:29:42.651Z,99.99
2016-04-16T02:30:42.637Z,99.99
2016-04-16T02:31:42.609Z,99.99
2016-04-16T02:32:42.611Z,99.99
2016-04-16T02:33:42.582Z,99.99
2016-04-16T02:34:42.569Z,99.99
2016-04-16T02:35:42.650Z,99.99
2016-04-16T02:36:42.544Z,99.99
2016-04-16T02:37:42.547Z,99.99
2016-04-16T02:38:42.518Z,99.99
2016-04-16T02:39:42.520Z,99.99
2016-04-16T02:40:42.492Z,99.99
2016-04-16T02:41:42.478Z,99.99
2016-04-16T02:42:42.466Z,99.99
2016-04-16T02:43:42.437Z,99.99
2016-04-16T02:44:42.465Z,99.99
2016-04-16T02:45:42.495Z,99.99
2016-04-16T02:46:42.525Z,99.99
2016-04-16T02:47:42.555Z,99.99
2016-04-16T02:48:42.584Z,99.99
2016-04-16T02:49:42.588Z,99.99
2016-04-16T02:50:42.496Z,99.99
2016-04-16T02:51:42.593Z,99.99
2016-04-16T02:52:42.595Z,99.99
2016-04-16T02:53:42.583Z,99.99
2016-04-16T02:54:42.591Z,99.99
2016-04-16T02:55:42.411Z,99.99
2016-04-16T02:56:42.561Z,99.99
2016-04-16T02:57:42.553Z,99.99
2016-04-16T02:58:42.546Z,99.99
2016-04-16T02:59:42.535Z,99.99
2016-04-16T03:00:42.524Z,99.99
2016-04-16T03:01:42.513Z,99.99
2016-04-16T03:02:42.503Z,99.99
2016-04-16T03:03:42.476Z,99.99
2016-04-16T03:04:42.479Z,99.99
2016-04-16T03:05:42.498Z,99.99
2016-04-16T03:06:42.283Z,99.99
2016-04-16T03:07:42.443Z,99.99
2016-04-16T03:08:42.415Z,99.99
2016-04-16T03:09:42.402Z,99.99
2016-04-16T03:10:42.389Z,99.99
2016-04-16T03:11:42.378Z,99.99
2016-04-16T03:12:42.365Z,99.99
2016-04-16T03:13:42.353Z,99.99
2016-04-16T03:14:42.355Z,99.99
2016-04-16T03:15:42.326Z,99.99
2016-04-16T03:16:42.314Z,99.99
2016-04-16T03:17:42.300Z,99.99
2016-04-16T03:18:42.287Z,99.99
2016-04-16T03:19:42.258Z,99.99
2016-04-16T03:20:42.106Z,99.99
2016-04-16T03:21:42.233Z,99.99
2016-04-16T03:22:42.220Z,99.99
2016-04-16T03:23:42.207Z,99.99
2016-04-16T03:24:42.194Z,99.99
2016-04-16T03:25:42.180Z,99.99
2016-04-16T03:26:42.152Z,99.99
2016-04-16T03:27:42.155Z,99.99
2016-04-16T03:28:42.143Z,99.99
2016-04-16T03:29:42.114Z,99.99
2016-04-16T03:30:42.116Z,99.99
2016-04-16T03:31:42.088Z,99.99
2016-04-16T03:32:42.091Z,99.99
2016-04-16T03:33:42.077Z,99.99
2016-04-16T03:34:42.049Z,99.99
2016-04-16T03:35:42.098Z,99.99
2016-04-16T03:36:42.023Z,99.99
2016-04-16T03:37:41.995Z,99.99
2016-04-16T03:38:41.998Z,99.99
2016-04-16T03:39:41.968Z,99.99
2016-04-16T03:40:41.971Z,99.99
2016-04-16T03:41:41.943Z,99.99
2016-04-16T03:42:41.945Z,99.99
2016-04-16T03:43:41.918Z,99.99
2016-04-16T03:44:41.920Z,99.99
2016-04-16T03:45:41.892Z,99.99
2016-04-16T03:46:41.878Z,99.99
2016-04-16T03:47:41.881Z,99.99
2016-04-16T03:48:41.853Z,99.99
2016-04-16T03:49:41.824Z,99.99
2016-04-16T03:50:41.936Z,99.99
2016-04-16T03:51:41.813Z,99.99
2016-04-16T03:52:41.786Z,99.99
2016-04-16T03:53:41.788Z,99.99
2016-04-16T03:54:41.775Z,99.99
2016-04-16T03:55:41.746Z,99.99
2016-04-16T03:56:41.733Z,99.99
2016-04-16T03:57:41.721Z,99.99
2016-04-16T03:58:41.707Z,99.99
2016-04-16T03:59:41.694Z,99.99
2016-04-16T04:00:41.681Z,99.99
2016-04-16T04:01:41.652Z,99.99
2016-04-16T04:02:41.655Z,99.99
2016-04-16T04:03:41.627Z,99.99
2016-04-16T04:04:41.615Z,99.99
2016-04-16T04:05:41.632Z,99.99
2016-04-16T04:06:41.588Z,99.99
2016-04-16T04:07:41.575Z,99.99
2016-04-16T04:08:41.562Z,99.99
2016-04-16T04:09:41.549Z,99.99
2016-04-16T04:10:41.537Z,99.99
2016-04-16T04:11:41.524Z,99.99
2016-04-16T04:12:41.511Z,99.99
2016-04-16T04:13:41.498Z,99.99
2016-04-16T04:14:41.484Z,99.99
2016-04-16T04:15:41.472Z,99.99
2016-04-16T04:16:41.443Z,99.99
2016-04-16T04:17:41.430Z,99.99
2016-04-16T04:18:41.417Z,99.99
2016-04-16T04:19:41.405Z,99.99
2016-04-16T04:20:41.501Z,99.99
2016-04-16T04:21:41.379Z,99.99
2016-04-16T04:22:41.366Z,99.99
2016-04-16T04:23:41.353Z,99.99
2016-04-16T04:24:41.355Z,99.99
2016-04-16T04:25:41.327Z,99.99
2016-04-16T04:26:41.313Z,99.99
2016-04-16T04:27:41.301Z,99.99
2016-04-16T04:28:41.272Z,99.99
2016-04-16T04:29:41.275Z,99.99
2016-04-16T04:30:41.247Z,99.99
2016-04-16T04:31:41.249Z,99.99
2016-04-16T04:32:41.221Z,99.99
2016-04-16T04:33:41.207Z,99.99
2016-04-16T04:34:41.196Z,99.99
2016-04-16T04:35:41.182Z,99.99
2016-04-16T04:36:41.169Z,99.99
2016-04-16T04:37:41.157Z,99.99
2016-04-16T04:38:41.159Z,99.99
2016-04-16T04:39:41.115Z,99.99
2016-04-16T04:40:41.101Z,99.99
2016-04-16T04:41:41.089Z,99.99
2016-04-16T04:42:41.091Z,99.99
2016-04-16T04:43:41.063Z,99.99
2016-04-16T04:44:41.050Z,99.99
2016-04-16T04:45:41.037Z,99.99
2016-04-16T04:46:41.024Z,99.99
2016-04-16T04:47:41.011Z,99.99
2016-04-16T04:48:40.998Z,99.99
2016-04-16T04:49:40.985Z,99.99
2016-04-16T04:50:40.956Z,99.99
2016-04-16T04:51:40.944Z,99.99
2016-04-16T04:52:40.947Z,99.99
2016-04-16T04:53:40.918Z,0
2016-04-16T04:54:40.905Z,0
2016-04-16T04:55:40.877Z,0
2016-04-16T04:56:40.863Z,0
2016-04-16T04:57:40.850Z,0
2016-04-16T04:58:40.852Z,0
2016-04-16T04:59:40.825Z,0
2016-04-16T05:00:40.811Z,0
2016-04-16T05:01:40.814Z,99.99
2016-04-16T05:02:40.786Z,99.99
2016-04-16T05:03:40.773Z,99.99
2016-04-16T05:04:40.760Z,99.58
2016-04-16T05:05:40.746Z,99.1
2016-04-16T05:06:40.734Z,99.29
2016-04-16T05:07:40.705Z,99.58
2016-04-16T05:08:40.696Z,98.71
2016-04-16T05:09:40.682Z,98.24
2016-04-16T05:10:40.670Z,98.71
2016-04-16T05:11:40.656Z,98.43
2016-04-16T05:12:40.644Z,98.62
2016-04-16T05:13:40.631Z,98.19
2016-04-16T05:14:40.602Z,97.9
2016-04-16T05:15:40.590Z,98.38
2016-04-16T05:16:40.576Z,98.43
2016-04-16T05:17:40.563Z,98.04
2016-04-16T05:18:40.550Z,97.42
2016-04-16T05:19:40.537Z,97.13
2016-04-16T05:20:40.525Z,97.23
2016-04-16T05:21:40.496Z,96.94
2016-04-16T05:22:40.484Z,96.47
2016-04-16T05:23:40.470Z,96.37
2016-04-16T05:24:40.458Z,96.66
2016-04-16T05:25:40.445Z,96.08
2016-04-16T05:26:40.431Z,95.41
2016-04-16T05:27:40.402Z,94.26
2016-04-16T05:28:40.406Z,93.69
2016-04-16T05:29:40.377Z,89.96
2016-04-16T05:30:40.364Z,92.16
2016-04-16T05:31:40.352Z,91.92
2016-04-16T05:32:40.339Z,91.16
2016-04-16T05:33:40.169Z,92.11
2016-04-16T05:34:40.296Z,90.96
2016-04-16T05:35:40.283Z,91.06
2016-04-16T05:36:40.271Z,89.72
2016-04-16T05:37:40.258Z,89.58
2016-04-16T05:38:40.245Z,88.91
2016-04-16T05:39:40.232Z,88.34
2016-04-16T05:40:40.219Z,88.05
2016-04-16T05:41:40.191Z,87.86
2016-04-16T05:42:40.177Z,88.15
2016-04-16T05:43:40.165Z,86.71
2016-04-16T05:44:40.151Z,86.71
2016-04-16T05:45:40.139Z,87.38
2016-04-16T05:46:40.126Z,75.71
2016-04-16T05:47:40.112Z,79.1
2016-04-16T05:48:40.085Z,81.02
2016-04-16T05:49:40.071Z,83.83
2016-04-16T05:50:40.074Z,85.94
2016-04-16T05:51:40.045Z,85.46
2016-04-16T05:52:40.033Z,86.22
2016-04-16T05:53:40.020Z,86.9
2016-04-16T05:54:40.006Z,88.04
2016-04-16T05:55:39.978Z,89.48
2016-04-16T05:56:39.965Z,91.2
2016-04-16T05:57:39.952Z,91.87
2016-04-16T05:58:39.939Z,93.12
2016-04-16T05:59:39.926Z,94.65
2016-04-16T06:00:39.914Z,96.18
2016-04-16T06:01:39.900Z,95.89
2016-04-16T06:02:39.872Z,97.42
2016-04-16T06:03:39.874Z,97.9
2016-04-16T06:04:39.846Z,98
2016-04-16T06:05:39.833Z,97.33
2016-04-16T06:06:39.820Z,98.66
2016-04-16T06:07:39.791Z,98.28
2016-04-16T06:08:39.779Z,99.24
2016-04-16T06:09:39.781Z,99.99
2016-04-16T06:10:39.752Z,99.99
2016-04-16T06:11:39.740Z,99.99
2016-04-16T06:12:39.727Z,99.99
2016-04-16T06:13:39.715Z,99.99
2016-04-16T06:14:39.701Z,99.99
2016-04-16T06:15:39.688Z,99.99
2016-04-16T06:16:39.676Z,98.86
2016-04-16T06:17:39.647Z,98.76
2016-04-16T06:18:39.634Z,97.8
2016-04-16T06:19:39.621Z,96.66
2016-04-16T06:20:39.608Z,95.61
2016-04-16T06:21:39.595Z,95.51
2016-04-16T06:22:39.581Z,95.31
2016-04-16T06:23:39.554Z,94.93
2016-04-16T06:24:39.540Z,94.26
2016-04-16T06:25:39.528Z,93.98
2016-04-16T06:26:39.515Z,93.3
2016-04-16T06:27:39.502Z,93.21
2016-04-16T06:28:39.488Z,92.25
2016-04-16T06:29:39.476Z,91.87
2016-04-16T06:30:39.447Z,92.16
2016-04-16T06:31:39.434Z,91.97
2016-04-16T06:32:39.421Z,91.49
2016-04-16T06:33:39.424Z,91.58
2016-04-16T06:34:39.396Z,91.49
2016-04-16T06:35:39.382Z,91.49
2016-04-16T06:36:39.370Z,91.68
2016-04-16T06:37:39.341Z,91.77
2016-04-16T06:38:39.344Z,91.39
2016-04-16T06:39:39.315Z,90.82
2016-04-16T06:40:39.302Z,91.58
2016-04-16T06:41:39.305Z,91.01
2016-04-16T06:42:39.277Z,91.77
2016-04-16T06:43:39.264Z,91.39
2016-04-16T06:44:39.251Z,90.82
2016-04-16T06:45:39.222Z,90.91
2016-04-16T06:46:39.209Z,90.72
2016-04-16T06:47:39.196Z,90.82
2016-04-16T06:48:39.184Z,90.05
2016-04-16T06:49:39.170Z,91.01
2016-04-16T06:50:39.157Z,90.15
2016-04-16T06:51:39.145Z,90.53
2016-04-16T06:52:39.116Z,90.24
2016-04-16T06:53:39.103Z,91.01
2016-04-16T06:54:39.090Z,90.91
2016-04-16T06:55:39.078Z,90.91
2016-04-16T06:56:39.080Z,90.91
2016-04-16T06:57:39.051Z,90.86
2016-04-16T06:58:39.039Z,90.53
2016-04-16T06:59:39.025Z,90.34
2016-04-16T07:00:39.012Z,91.11
2016-04-16T07:01:39.000Z,89.81
2016-04-16T07:02:38.986Z,90.34
2016-04-16T07:03:38.958Z,91.11
2016-04-16T07:04:38.945Z,91.05
2016-04-16T07:05:38.932Z,90.91
2016-04-16T07:06:38.919Z,90.34
2016-04-16T07:07:38.906Z,91.2
2016-04-16T07:08:38.908Z,90.05
2016-04-16T07:09:38.880Z,89.9
2016-04-16T07:10:38.867Z,90.96
2016-04-16T07:11:38.839Z,90.96
2016-04-16T07:12:38.827Z,91.05
2016-04-16T07:13:38.812Z,90.39
2016-04-16T07:14:38.816Z,90.09
2016-04-16T07:15:38.787Z,90.96
2016-04-16T07:16:38.774Z,90.09
2016-04-16T07:17:38.762Z,90.48
2016-04-16T07:18:38.748Z,90.39
2016-04-16T07:19:38.735Z,90.19
2016-04-16T07:20:38.706Z,90.39
2016-04-16T07:21:38.709Z,90.19
2016-04-16T07:22:38.681Z,90.39
2016-04-16T07:23:38.667Z,90
2016-04-16T07:24:38.655Z,91.05
2016-04-16T07:25:38.642Z,90.58
2016-04-16T07:26:38.629Z,90.09
2016-04-16T07:27:38.616Z,90.48
2016-04-16T07:28:38.603Z,90.29
2016-04-16T07:29:38.590Z,90.96
2016-04-16T07:30:38.578Z,90.09
2016-04-16T07:31:38.565Z,90.09
2016-04-16T07:32:38.552Z,91.05
2016-04-16T07:33:38.523Z,90.86
2016-04-16T07:34:38.510Z,90.77
2016-04-16T07:35:38.513Z,90.77
2016-04-16T07:36:38.484Z,91.15
2016-04-16T07:37:38.471Z,91.05
2016-04-16T07:38:38.458Z,91.05
2016-04-16T07:39:38.445Z,90.77
2016-04-16T07:40:38.432Z,91.15
2016-04-16T07:41:38.420Z,91.05
2016-04-16T07:42:38.406Z,90.96
2016-04-16T07:43:38.377Z,90.86
2016-04-16T07:44:38.365Z,90.96
2016-04-16T07:45:38.352Z,90.09
2016-04-16T07:46:38.340Z,90.96
2016-04-16T07:47:38.343Z,91.05
2016-04-16T07:48:38.313Z,90.77
2016-04-16T07:49:38.301Z,91.05
2016-04-16T07:50:38.287Z,91.05
2016-04-16T07:51:38.274Z,90.29
2016-04-16T07:52:38.262Z,90.77
2016-04-16T07:53:38.249Z,91.53
2016-04-16T07:54:38.220Z,91.15
2016-04-16T07:55:38.223Z,90.96
2016-04-16T07:56:38.195Z,91.05
2016-04-16T07:57:38.182Z,91.63
2016-04-16T07:58:38.167Z,90.77
2016-04-16T07:59:38.155Z,91.1
2016-04-16T08:00:38.143Z,90.43
2016-04-16T08:01:38.130Z,91
2016-04-16T08:02:38.100Z,91
2016-04-16T08:03:38.103Z,91
2016-04-16T08:04:38.075Z,90.91
2016-04-16T08:05:38.062Z,91.1
2016-04-16T08:06:38.064Z,90.81
2016-04-16T08:07:38.036Z,91
2016-04-16T08:08:38.024Z,91.1
2016-04-16T08:09:38.011Z,90.62
2016-04-16T08:10:37.997Z,91.1
2016-04-16T08:11:37.985Z,91.39
2016-04-16T08:12:37.971Z,91.19
2016-04-16T08:13:37.958Z,91.19
2016-04-16T08:14:37.946Z,90.91
2016-04-16T08:15:37.917Z,90.81
2016-04-16T08:16:37.905Z,90.33
2016-04-16T08:17:37.896Z,91
2016-04-16T08:18:37.884Z,91.1
2016-04-16T08:19:37.887Z,91.39
2016-04-16T08:20:37.857Z,92.2
2016-04-16T08:21:37.937Z,90.86
2016-04-16T08:22:37.832Z,90.57
2016-04-16T08:23:37.818Z,90.38
2016-04-16T08:24:37.806Z,90.19
2016-04-16T08:25:37.792Z,90.28
2016-04-16T08:26:37.780Z,90.19
2016-04-16T08:27:37.751Z,90.19
2016-04-16T08:28:37.738Z,90.28
2016-04-16T08:29:37.725Z,90.28
2016-04-16T08:30:37.712Z,89.71
2016-04-16T08:31:37.700Z,89.9
2016-04-16T08:32:37.686Z,90.19
2016-04-16T08:33:37.674Z,90
2016-04-16T08:34:37.661Z,90.47
2016-04-16T08:35:37.647Z,90.47
2016-04-16T08:36:37.760Z,89.9
2016-04-16T08:37:37.622Z,90.19
2016-04-16T08:38:37.608Z,91.14
2016-04-16T08:39:37.596Z,90.67
2016-04-16T08:40:37.583Z,90.47
2016-04-16T08:41:37.570Z,90.81
2016-04-16T08:42:37.541Z,90.95
2016-04-16T08:43:37.544Z,89.61
2016-04-16T08:44:37.516Z,89.71
2016-04-16T08:45:37.503Z,88.89
2016-04-16T08:46:37.505Z,88.51
2016-04-16T08:47:37.477Z,88.41
2016-04-16T08:48:37.479Z,88.35
2016-04-16T08:49:37.451Z,88.12
2016-04-16T08:50:37.438Z,88.31
2016-04-16T08:51:37.473Z,87.55
2016-04-16T08:52:37.412Z,88.51
2016-04-16T08:53:37.399Z,87.35
2016-04-16T08:54:37.387Z,88.22
2016-04-16T08:55:37.451Z,89.61
2016-04-16T08:56:37.361Z,89.42
2016-04-16T08:57:37.347Z,88.08
2016-04-16T08:58:37.334Z,88.37
2016-04-16T08:59:37.321Z,89.23
2016-04-16T09:00:37.309Z,88.27
2016-04-16T09:01:37.295Z,87.93
2016-04-16T09:02:37.283Z,88.46
2016-04-16T09:03:37.270Z,89.23
2016-04-16T09:04:37.257Z,89.51
2016-04-16T09:05:37.260Z,88.75
2016-04-16T09:06:37.356Z,89.9
2016-04-16T09:07:37.219Z,88.12
2016-04-16T09:08:37.205Z,88.79
2016-04-16T09:09:37.192Z,88.37
2016-04-16T09:10:37.179Z,88.79
2016-04-16T09:11:37.166Z,88.12
2016-04-16T09:12:37.154Z,88.31
2016-04-16T09:13:37.140Z,88.31
2016-04-16T09:14:37.127Z,88.45
2016-04-16T09:15:37.115Z,87.68
2016-04-16T09:16:37.102Z,87.35
2016-04-16T09:17:37.089Z,87.64
2016-04-16T09:18:37.075Z,87.68
2016-04-16T09:19:37.062Z,88.41
2016-04-16T09:20:37.050Z,87.78
2016-04-16T09:21:37.209Z,87.11
2016-04-16T09:22:37.023Z,86.54
2016-04-16T09:23:37.012Z,86.34
2016-04-16T09:24:36.998Z,85.62
2016-04-16T09:25:36.985Z,86.05
2016-04-16T09:26:36.972Z,85.1
2016-04-16T09:27:36.975Z,86.05
2016-04-16T09:28:36.947Z,86.21
2016-04-16T09:29:36.934Z,86.97
2016-04-16T09:30:36.921Z,87.45
2016-04-16T09:31:36.908Z,87.26
2016-04-16T09:32:36.895Z,87.64
2016-04-16T09:33:36.881Z,86.97
2016-04-16T09:34:36.869Z,87.21
2016-04-16T09:35:36.855Z,86.54
2016-04-16T09:36:36.889Z,87.4
2016-04-16T09:37:36.830Z,87.21
2016-04-16T09:38:36.817Z,87.3
2016-04-16T09:39:36.805Z,86.72
2016-04-16T09:40:36.791Z,86.63
2016-04-16T09:41:36.794Z,87.21
2016-04-16T09:42:36.765Z,85.96
2016-04-16T09:43:36.737Z,86.15
2016-04-16T09:44:36.739Z,85.86
2016-04-16T09:45:36.726Z,86.63
2016-04-16T09:46:36.713Z,86.48
2016-04-16T09:47:36.701Z,86.19
2016-04-16T09:48:36.687Z,86
2016-04-16T09:49:36.674Z,86.25
2016-04-16T09:50:36.662Z,85.62
2016-04-16T09:51:36.665Z,86.44
2016-04-16T09:52:36.637Z,85.67
2016-04-16T09:53:36.639Z,84.81
2016-04-16T09:54:36.610Z,86.01
2016-04-16T09:55:36.597Z,85.34
2016-04-16T09:56:36.584Z,85.72
2016-04-16T09:57:36.571Z,84.38
2016-04-16T09:58:36.558Z,84.38
2016-04-16T09:59:36.545Z,85.28
2016-04-16T10:00:36.532Z,84.42
2016-04-16T10:01:36.520Z,85.38
2016-04-16T10:02:36.507Z,86.15
2016-04-16T10:03:36.494Z,85.52
2016-04-16T10:04:36.480Z,83.51
2016-04-16T10:05:36.467Z,83.94
2016-04-16T10:06:36.455Z,85.28
2016-04-16T10:07:36.442Z,84.95
2016-04-16T10:08:36.430Z,83.27
2016-04-16T10:09:36.416Z,83.12
2016-04-16T10:10:36.403Z,83.22
2016-04-16T10:11:36.391Z,83.18
2016-04-16T10:12:36.377Z,82.51
2016-04-16T10:13:36.364Z,82.7
2016-04-16T10:14:36.352Z,82.6
2016-04-16T10:15:36.339Z,83.18
2016-04-16T10:16:36.326Z,83.27
2016-04-16T10:17:36.313Z,82.7
2016-04-16T10:18:36.315Z,82.89
2016-04-16T10:19:36.287Z,83.37
2016-04-16T10:20:36.273Z,83.18
2016-04-16T10:21:36.260Z,83.85
2016-04-16T10:22:36.248Z,83.51
2016-04-16T10:23:36.251Z,82.45
2016-04-16T10:24:36.223Z,82.54
2016-04-16T10:25:36.209Z,82.07
2016-04-16T10:26:36.196Z,81.15
2016-04-16T10:27:36.183Z,81.72
2016-04-16T10:28:36.186Z,81.05
2016-04-16T10:29:36.156Z,81.34
2016-04-16T10:30:36.144Z,79.75
2016-04-16T10:31:36.131Z,80.47
2016-04-16T10:32:36.134Z,80.47
2016-04-16T10:33:36.105Z,79.75
2016-04-16T10:34:36.108Z,78.69
2016-04-16T10:35:36.080Z,78.78
2016-04-16T10:36:36.083Z,79.46
2016-04-16T10:37:36.070Z,78.69
2016-04-16T10:38:36.056Z,78.83
2016-04-16T10:39:36.044Z,79.36
2016-04-16T10:40:36.030Z,79.07
2016-04-16T10:41:36.018Z,79.4
2016-04-16T10:42:36.005Z,79.02
2016-04-16T10:43:36.008Z,79.11
2016-04-16T10:44:35.979Z,78.58
2016-04-16T10:45:35.966Z,79.69
2016-04-16T10:46:35.969Z,79.3
2016-04-16T10:47:35.955Z,79.75
2016-04-16T10:48:35.943Z,77.76
2016-04-16T10:49:35.929Z,77.63
2016-04-16T10:50:35.917Z,75.46
2016-04-16T10:51:35.903Z,76.01
2016-04-16T10:52:35.890Z,76.98
2016-04-16T10:53:35.893Z,78.92
2016-04-16T10:54:35.865Z,76.84
2016-04-16T10:55:35.867Z,73.26
2016-04-16T10:56:35.870Z,73.58
2016-04-16T10:57:35.842Z,71.12
2016-04-16T10:58:35.829Z,70.8
2016-04-16T10:59:35.832Z,70.83
2016-04-16T11:00:35.820Z,70
2016-04-16T11:01:35.806Z,70.67
2016-04-16T11:02:35.809Z,73.05
2016-04-16T11:03:35.795Z,75.24
2016-04-16T11:04:35.783Z,74.86
2016-04-16T11:05:35.769Z,73.42
2016-04-16T11:06:35.756Z,70.73
2016-04-16T11:07:35.759Z,67.49
2016-04-16T11:08:35.747Z,65.34
2016-04-16T11:09:35.734Z,63.37
2016-04-16T11:10:35.736Z,64.05
2016-04-16T11:11:35.739Z,65.75
2016-04-16T11:12:35.726Z,63.37
2016-04-16T11:13:35.713Z,64.08
2016-04-16T11:14:35.715Z,64.24
2016-04-16T11:15:35.702Z,63.63
2016-04-16T11:16:35.705Z,63.95
2016-04-16T11:17:35.693Z,60.37
2016-04-16T11:18:35.695Z,63.4
2016-04-16T11:19:35.682Z,63.28
2016-04-16T11:20:35.685Z,61.57
2016-04-16T11:21:35.829Z,59.31
2016-04-16T11:22:35.690Z,60.47
2016-04-16T11:23:35.677Z,60.14
2016-04-16T11:24:35.680Z,59.14
2016-04-16T11:25:35.667Z,59.36
2016-04-16T11:26:35.670Z,58.53
2016-04-16T11:27:35.657Z,55.42
2016-04-16T11:28:35.659Z,56.64
2016-04-16T11:29:35.662Z,58.98
2016-04-16T11:30:35.664Z,60.53
2016-04-16T11:31:35.653Z,62.18
2016-04-16T11:32:35.655Z,61.89
2016-04-16T11:33:35.658Z,63.28
2016-04-16T11:34:35.645Z,62.79
2016-04-16T11:35:35.647Z,60.86
2016-04-16T11:36:35.650Z,58.98
2016-04-16T11:37:35.637Z,58.92
2016-04-16T11:38:35.639Z,61.79
2016-04-16T11:39:35.642Z,62.79
2016-04-16T11:40:35.645Z,64.21
2016-04-16T11:41:35.632Z,65.91
2016-04-16T11:42:35.635Z,61.47
2016-04-16T11:43:35.622Z,57.46
2016-04-16T11:44:35.640Z,51.93
2016-04-16T11:45:35.627Z,51.84
2016-04-16T11:46:35.630Z,56.37
2016-04-16T11:47:35.616Z,56.85
2016-04-16T11:48:35.619Z,57.88
2016-04-16T11:49:35.622Z,62.5
2016-04-16T11:50:35.653Z,65.43
2016-04-16T11:51:35.700Z,66.91
2016-04-16T11:52:35.731Z,67.1
2016-04-16T11:53:35.777Z,67.55
2016-04-16T11:54:35.824Z,67.74
2016-04-16T11:55:35.829Z,67.84
2016-04-16T11:56:35.847Z,69.25
2016-04-16T11:57:35.849Z,66.39
2016-04-16T11:58:35.868Z,65.11
2016-04-16T11:59:35.886Z,65.75
2016-04-16T12:00:35.878Z,66.59
2016-04-16T12:01:35.888Z,64.53
2016-04-16T12:02:35.881Z,66.97
2016-04-16T12:03:35.873Z,71.02
2016-04-16T12:04:35.882Z,71.34
2016-04-16T12:05:35.886Z,70.89
2016-04-16T12:06:35.875Z,69.25
2016-04-16T12:07:35.866Z,68.32
2016-04-16T12:08:35.854Z,68.71
2016-04-16T12:09:35.860Z,71.7
2016-04-16T12:10:35.848Z,71.43
2016-04-16T12:11:35.852Z,72.43
2016-04-16T12:12:35.839Z,73.13
2016-04-16T12:13:35.842Z,73.36
2016-04-16T12:14:35.830Z,73.07
2016-04-16T12:15:35.818Z,74.51
2016-04-16T12:16:35.821Z,74.96
2016-04-16T12:17:35.809Z,73.9
2016-04-16T12:18:35.795Z,74.76
2016-04-16T12:19:35.784Z,73.71
2016-04-16T12:20:35.786Z,69.89
2016-04-16T12:21:35.789Z,67.26
2016-04-16T12:22:35.775Z,67.14
2016-04-16T12:23:35.763Z,66.56
2016-04-16T12:24:35.750Z,64.72
2016-04-16T12:25:35.737Z,66.2
2016-04-16T12:26:35.739Z,67.43
2016-04-16T12:27:35.727Z,68.35
2016-04-16T12:28:35.714Z,69.48
2016-04-16T12:29:35.700Z,69.48
2016-04-16T12:30:35.703Z,70.31
2016-04-16T12:31:35.691Z,70.41
2016-04-16T12:32:35.694Z,72.24
2016-04-16T12:33:35.680Z,72.68
2016-04-16T12:34:35.667Z,71.62
2016-04-16T12:35:35.671Z,69.06
2016-04-16T12:36:35.657Z,63.15
2016-04-16T12:37:35.644Z,60.69
2016-04-16T12:38:35.647Z,58.7
2016-04-16T12:39:35.634Z,57.88
2016-04-16T12:40:35.621Z,57.01
2016-04-16T12:41:35.640Z,55.98
2016-04-16T12:42:35.626Z,58.52
2016-04-16T12:43:35.613Z,60.53
2016-04-16T12:44:35.616Z,61.25
2016-04-16T12:45:35.603Z,62.18
2016-04-16T12:46:35.606Z,61.15
2016-04-16T12:47:35.592Z,61.25
2016-04-16T12:48:35.596Z,60.5
2016-04-16T12:49:35.583Z,61.92
2016-04-16T12:50:35.586Z,61.92
2016-04-16T12:51:35.573Z,63.05
2016-04-16T12:52:35.606Z,63.92
2016-04-16T12:53:35.562Z,62.79
2016-04-16T12:54:35.564Z,62.54
2016-04-16T12:55:35.552Z,64.37